sensor_id;sensor_type;location;lat;lon;timestamp;P1;durP1;ratioP1;P2;durP2;ratioP2
23119;SDS011;11729;50.836;4.330;2023-04-03T00:02:18;15.25;;;13.65;;
23119;SDS011;11729;50.836;4.330;2023-04-03T00:04:44;16.05;;;13.27;;
23119;SDS011;11729;50.836;4.330;2023-04-03T00:07:10;15.73;;;13.13;;
23119;SDS011;11729;50.836;4.330;2023-04-03T00:09:37;13.77;;;12.40;;
23119;SDS011;11729;50.836;4.330;2023-04-03T00:12:03;15.75;;;12.38;;
23119;SDS011;11729;50.836;4.330;2023-04-03T00:14:28;16.23;;;12.57;;
23119;SDS011;11729;50.836;4.330;2023-04-03T00:16:54;13.15;;;11.80;;
23119;SDS011;11729;50.836;4.330;2023-04-03T00:19:20;16.85;;;12.43;;
23119;SDS011;11729;50.836;4.330;2023-04-03T00:21:45;14.13;;;12.18;;
23119;SDS011;11729;50.836;4.330;2023-04-03T00:24:11;13.68;;;12.13;;
23119;SDS011;11729;50.836;4.330;2023-04-03T00:26:37;14.70;;;11.88;;
23119;SDS011;11729;50.836;4.330;2023-04-03T00:29:02;15.93;;;12.27;;
23119;SDS011;11729;50.836;4.330;2023-04-03T00:31:28;13.18;;;11.77;;
23119;SDS011;11729;50.836;4.330;2023-04-03T00:33:53;14.57;;;11.38;;
23119;SDS011;11729;50.836;4.330;2023-04-03T00:36:19;12.13;;;11.00;;
23119;SDS011;11729;50.836;4.330;2023-04-03T00:38:45;19.08;;;11.88;;
23119;SDS011;11729;50.836;4.330;2023-04-03T00:41:10;13.20;;;11.82;;
23119;SDS011;11729;50.836;4.330;2023-04-03T00:43:36;16.92;;;10.95;;
23119;SDS011;11729;50.836;4.330;2023-04-03T00:46:02;13.25;;;11.85;;
23119;SDS011;11729;50.836;4.330;2023-04-03T00:48:46;12.40;;;11.10;;
23119;SDS011;11729;50.836;4.330;2023-04-03T00:51:14;12.30;;;11.00;;
23119;SDS011;11729;50.836;4.330;2023-04-03T00:53:49;14.85;;;11.63;;
23119;SDS011;11729;50.836;4.330;2023-04-03T00:56:19;12.10;;;10.82;;
23119;SDS011;11729;50.836;4.330;2023-04-03T00:58:49;15.68;;;11.40;;
23119;SDS011;11729;50.836;4.330;2023-04-03T01:01:21;12.55;;;10.65;;
23119;SDS011;11729;50.836;4.330;2023-04-03T01:03:49;12.35;;;11.10;;
23119;SDS011;11729;50.836;4.330;2023-04-03T01:06:16;11.27;;;10.30;;
23119;SDS011;11729;50.836;4.330;2023-04-03T01:08:45;12.57;;;11.27;;
23119;SDS011;11729;50.836;4.330;2023-04-03T01:11:14;12.95;;;11.18;;
23119;SDS011;11729;50.836;4.330;2023-04-03T01:13:39;12.00;;;10.80;;
23119;SDS011;11729;50.836;4.330;2023-04-03T01:16:06;14.52;;;10.82;;
23119;SDS011;11729;50.836;4.330;2023-04-03T01:18:32;13.75;;;10.90;;
23119;SDS011;11729;50.836;4.330;2023-04-03T01:26:45;12.73;;;11.15;;
23119;SDS011;11729;50.836;4.330;2023-04-03T01:29:11;12.68;;;11.30;;
23119;SDS011;11729;50.836;4.330;2023-04-03T01:34:08;12.98;;;11.38;;
23119;SDS011;11729;50.836;4.330;2023-04-03T01:36:35;13.75;;;11.20;;
23119;SDS011;11729;50.836;4.330;2023-04-03T01:39:01;15.43;;;12.00;;
23119;SDS011;11729;50.836;4.330;2023-04-03T01:41:26;14.82;;;11.32;;
23119;SDS011;11729;50.836;4.330;2023-04-03T01:43:52;13.05;;;11.68;;
23119;SDS011;11729;50.836;4.330;2023-04-03T01:46:18;15.75;;;11.75;;
23119;SDS011;11729;50.836;4.330;2023-04-03T01:48:45;14.60;;;11.68;;
23119;SDS011;11729;50.836;4.330;2023-04-03T01:51:13;13.43;;;11.60;;
23119;SDS011;11729;50.836;4.330;2023-04-03T01:53:38;14.20;;;11.75;;
23119;SDS011;11729;50.836;4.330;2023-04-03T01:56:04;13.50;;;11.80;;
23119;SDS011;11729;50.836;4.330;2023-04-03T01:58:30;13.25;;;11.00;;
23119;SDS011;11729;50.836;4.330;2023-04-03T02:00:55;12.77;;;11.13;;
23119;SDS011;11729;50.836;4.330;2023-04-03T02:03:21;13.93;;;11.50;;
23119;SDS011;11729;50.836;4.330;2023-04-03T02:05:47;12.13;;;10.82;;
23119;SDS011;11729;50.836;4.330;2023-04-03T02:08:13;12.40;;;10.90;;
23119;SDS011;11729;50.836;4.330;2023-04-03T02:10:42;13.50;;;11.40;;
23119;SDS011;11729;50.836;4.330;2023-04-03T02:13:08;12.32;;;10.63;;
23119;SDS011;11729;50.836;4.330;2023-04-03T02:15:34;13.50;;;10.75;;
23119;SDS011;11729;50.836;4.330;2023-04-03T02:18:03;12.15;;;11.02;;
23119;SDS011;11729;50.836;4.330;2023-04-03T02:20:28;13.65;;;11.50;;
23119;SDS011;11729;50.836;4.330;2023-04-03T02:22:54;12.77;;;11.05;;
23119;SDS011;11729;50.836;4.330;2023-04-03T02:25:20;12.27;;;11.02;;
23119;SDS011;11729;50.836;4.330;2023-04-03T02:27:46;12.27;;;11.10;;
23119;SDS011;11729;50.836;4.330;2023-04-03T02:30:11;14.90;;;11.40;;
23119;SDS011;11729;50.836;4.330;2023-04-03T02:32:38;13.50;;;11.45;;
23119;SDS011;11729;50.836;4.330;2023-04-03T02:35:05;12.02;;;10.93;;
23119;SDS011;11729;50.836;4.330;2023-04-03T02:37:30;14.80;;;11.50;;
23119;SDS011;11729;50.836;4.330;2023-04-03T02:39:56;12.88;;;10.90;;
23119;SDS011;11729;50.836;4.330;2023-04-03T02:42:22;12.02;;;10.82;;
23119;SDS011;11729;50.836;4.330;2023-04-03T02:44:47;15.55;;;11.32;;
23119;SDS011;11729;50.836;4.330;2023-04-03T02:47:13;16.35;;;11.52;;
23119;SDS011;11729;50.836;4.330;2023-04-03T02:49:38;13.93;;;11.63;;
23119;SDS011;11729;50.836;4.330;2023-04-03T02:52:04;12.75;;;11.13;;
23119;SDS011;11729;50.836;4.330;2023-04-03T02:54:30;14.30;;;11.32;;
23119;SDS011;11729;50.836;4.330;2023-04-03T02:56:56;12.45;;;11.15;;
23119;SDS011;11729;50.836;4.330;2023-04-03T02:59:22;13.45;;;11.05;;
23119;SDS011;11729;50.836;4.330;2023-04-03T03:01:48;13.45;;;11.40;;
23119;SDS011;11729;50.836;4.330;2023-04-03T03:04:13;14.07;;;11.13;;
23119;SDS011;11729;50.836;4.330;2023-04-03T03:06:39;12.85;;;11.43;;
23119;SDS011;11729;50.836;4.330;2023-04-03T03:09:05;13.45;;;11.40;;
23119;SDS011;11729;50.836;4.330;2023-04-03T03:11:31;12.80;;;11.25;;
23119;SDS011;11729;50.836;4.330;2023-04-03T03:13:57;15.60;;;10.88;;
23119;SDS011;11729;50.836;4.330;2023-04-03T03:16:22;12.00;;;10.73;;
23119;SDS011;11729;50.836;4.330;2023-04-03T03:18:48;14.25;;;11.48;;
23119;SDS011;11729;50.836;4.330;2023-04-03T03:21:14;13.30;;;11.55;;
23119;SDS011;11729;50.836;4.330;2023-04-03T03:23:40;12.98;;;11.40;;
23119;SDS011;11729;50.836;4.330;2023-04-03T03:26:08;12.50;;;11.27;;
23119;SDS011;11729;50.836;4.330;2023-04-03T03:28:35;13.38;;;12.07;;
23119;SDS011;11729;50.836;4.330;2023-04-03T03:31:02;14.43;;;11.40;;
23119;SDS011;11729;50.836;4.330;2023-04-03T03:33:29;13.35;;;11.98;;
23119;SDS011;11729;50.836;4.330;2023-04-03T03:35:54;17.77;;;11.85;;
23119;SDS011;11729;50.836;4.330;2023-04-03T03:38:37;12.60;;;11.35;;
23119;SDS011;11729;50.836;4.330;2023-04-03T03:41:02;13.95;;;11.80;;
23119;SDS011;11729;50.836;4.330;2023-04-03T03:43:29;12.90;;;11.55;;
23119;SDS011;11729;50.836;4.330;2023-04-03T03:45:55;15.57;;;12.43;;
23119;SDS011;11729;50.836;4.330;2023-04-03T03:48:20;17.40;;;12.23;;
23119;SDS011;11729;50.836;4.330;2023-04-03T03:50:47;14.55;;;12.55;;
23119;SDS011;11729;50.836;4.330;2023-04-03T03:53:14;17.33;;;12.13;;
23119;SDS011;11729;50.836;4.330;2023-04-03T03:55:40;17.48;;;12.48;;
23119;SDS011;11729;50.836;4.330;2023-04-03T03:58:06;14.15;;;11.68;;
23119;SDS011;11729;50.836;4.330;2023-04-03T04:00:34;15.35;;;12.38;;
23119;SDS011;11729;50.836;4.330;2023-04-03T04:03:00;15.77;;;12.90;;
23119;SDS011;11729;50.836;4.330;2023-04-03T04:05:25;15.27;;;12.40;;
23119;SDS011;11729;50.836;4.330;2023-04-03T04:07:51;16.00;;;12.48;;
23119;SDS011;11729;50.836;4.330;2023-04-03T04:10:17;14.57;;;12.77;;
23119;SDS011;11729;50.836;4.330;2023-04-03T04:12:42;16.33;;;12.15;;
23119;SDS011;11729;50.836;4.330;2023-04-03T04:15:08;14.07;;;12.55;;
23119;SDS011;11729;50.836;4.330;2023-04-03T04:17:34;15.85;;;11.88;;
23119;SDS011;11729;50.836;4.330;2023-04-03T04:20:00;15.75;;;12.85;;
23119;SDS011;11729;50.836;4.330;2023-04-03T04:22:29;18.70;;;13.30;;
23119;SDS011;11729;50.836;4.330;2023-04-03T04:24:55;14.00;;;12.70;;
23119;SDS011;11729;50.836;4.330;2023-04-03T04:27:20;14.77;;;12.82;;
23119;SDS011;11729;50.836;4.330;2023-04-03T04:29:46;14.63;;;12.63;;
23119;SDS011;11729;50.836;4.330;2023-04-03T04:32:11;14.70;;;13.07;;
23119;SDS011;11729;50.836;4.330;2023-04-03T04:34:37;14.45;;;12.95;;
23119;SDS011;11729;50.836;4.330;2023-04-03T04:37:02;14.30;;;12.88;;
23119;SDS011;11729;50.836;4.330;2023-04-03T04:39:28;15.48;;;12.52;;
23119;SDS011;11729;50.836;4.330;2023-04-03T04:41:53;14.63;;;13.13;;
23119;SDS011;11729;50.836;4.330;2023-04-03T04:44:20;14.80;;;13.30;;
23119;SDS011;11729;50.836;4.330;2023-04-03T04:46:46;18.55;;;13.45;;
23119;SDS011;11729;50.836;4.330;2023-04-03T04:49:12;16.85;;;13.50;;
23119;SDS011;11729;50.836;4.330;2023-04-03T04:51:37;20.17;;;13.48;;
23119;SDS011;11729;50.836;4.330;2023-04-03T04:54:03;16.55;;;13.57;;
23119;SDS011;11729;50.836;4.330;2023-04-03T04:56:28;19.15;;;13.60;;
23119;SDS011;11729;50.836;4.330;2023-04-03T04:58:54;16.30;;;13.45;;
23119;SDS011;11729;50.836;4.330;2023-04-03T05:01:20;17.35;;;14.20;;
23119;SDS011;11729;50.836;4.330;2023-04-03T05:03:47;16.45;;;13.95;;
23119;SDS011;11729;50.836;4.330;2023-04-03T05:06:12;19.08;;;14.35;;
23119;SDS011;11729;50.836;4.330;2023-04-03T05:08:38;16.35;;;13.90;;
23119;SDS011;11729;50.836;4.330;2023-04-03T05:11:04;15.68;;;14.00;;
23119;SDS011;11729;50.836;4.330;2023-04-03T05:13:30;18.05;;;14.38;;
23119;SDS011;11729;50.836;4.330;2023-04-03T05:15:55;19.63;;;14.40;;
23119;SDS011;11729;50.836;4.330;2023-04-03T05:18:22;18.15;;;14.38;;
23119;SDS011;11729;50.836;4.330;2023-04-03T05:20:48;17.83;;;14.52;;
23119;SDS011;11729;50.836;4.330;2023-04-03T05:23:16;20.77;;;14.75;;
23119;SDS011;11729;50.836;4.330;2023-04-03T05:25:42;18.20;;;14.88;;
23119;SDS011;11729;50.836;4.330;2023-04-03T05:28:11;16.13;;;14.45;;
23119;SDS011;11729;50.836;4.330;2023-04-03T05:30:36;19.58;;;14.77;;
23119;SDS011;11729;50.836;4.330;2023-04-03T05:33:02;17.60;;;14.25;;
23119;SDS011;11729;50.836;4.330;2023-04-03T05:35:28;16.25;;;14.43;;
23119;SDS011;11729;50.836;4.330;2023-04-03T05:37:53;17.85;;;14.95;;
23119;SDS011;11729;50.836;4.330;2023-04-03T05:40:20;16.33;;;14.65;;
23119;SDS011;11729;50.836;4.330;2023-04-03T05:42:47;22.05;;;14.50;;
23119;SDS011;11729;50.836;4.330;2023-04-03T05:45:12;30.98;;;16.42;;
23119;SDS011;11729;50.836;4.330;2023-04-03T05:47:38;18.92;;;15.70;;
23119;SDS011;11729;50.836;4.330;2023-04-03T05:50:05;20.45;;;15.65;;
23119;SDS011;11729;50.836;4.330;2023-04-03T05:52:33;20.53;;;15.83;;
23119;SDS011;11729;50.836;4.330;2023-04-03T05:55:02;22.83;;;15.40;;
23119;SDS011;11729;50.836;4.330;2023-04-03T05:57:29;17.00;;;15.38;;
23119;SDS011;11729;50.836;4.330;2023-04-03T05:59:55;27.13;;;16.55;;
23119;SDS011;11729;50.836;4.330;2023-04-03T06:02:22;24.60;;;16.75;;
23119;SDS011;11729;50.836;4.330;2023-04-03T06:04:49;22.23;;;17.53;;
23119;SDS011;11729;50.836;4.330;2023-04-03T06:07:22;21.17;;;16.75;;
23119;SDS011;11729;50.836;4.330;2023-04-03T06:09:51;23.27;;;16.58;;
23119;SDS011;11729;50.836;4.330;2023-04-03T06:12:18;20.88;;;15.80;;
23119;SDS011;11729;50.836;4.330;2023-04-03T06:14:44;21.17;;;15.57;;
23119;SDS011;11729;50.836;4.330;2023-04-03T06:17:09;21.00;;;15.52;;
23119;SDS011;11729;50.836;4.330;2023-04-03T06:19:35;23.25;;;15.93;;
23119;SDS011;11729;50.836;4.330;2023-04-03T06:22:01;19.17;;;16.05;;
23119;SDS011;11729;50.836;4.330;2023-04-03T06:24:28;21.80;;;15.65;;
23119;SDS011;11729;50.836;4.330;2023-04-03T06:26:54;23.25;;;15.73;;
23119;SDS011;11729;50.836;4.330;2023-04-03T06:29:19;19.20;;;15.88;;
23119;SDS011;11729;50.836;4.330;2023-04-03T06:31:46;22.08;;;16.40;;
23119;SDS011;11729;50.836;4.330;2023-04-03T06:34:12;19.38;;;15.20;;
23119;SDS011;11729;50.836;4.330;2023-04-03T06:36:38;21.67;;;15.95;;
23119;SDS011;11729;50.836;4.330;2023-04-03T06:39:04;28.90;;;15.93;;
23119;SDS011;11729;50.836;4.330;2023-04-03T06:41:30;17.45;;;14.70;;
23119;SDS011;11729;50.836;4.330;2023-04-03T06:43:56;18.00;;;14.30;;
23119;SDS011;11729;50.836;4.330;2023-04-03T06:46:23;23.48;;;13.82;;
23119;SDS011;11729;50.836;4.330;2023-04-03T06:48:50;24.38;;;14.18;;
23119;SDS011;11729;50.836;4.330;2023-04-03T06:53:47;21.50;;;13.25;;
23119;SDS011;11729;50.836;4.330;2023-04-03T06:56:14;24.52;;;11.88;;
23119;SDS011;11729;50.836;4.330;2023-04-03T06:58:40;23.83;;;11.68;;
23119;SDS011;11729;50.836;4.330;2023-04-03T07:01:06;38.20;;;16.77;;
23119;SDS011;11729;50.836;4.330;2023-04-03T07:03:32;18.50;;;11.63;;
23119;SDS011;11729;50.836;4.330;2023-04-03T07:05:58;18.85;;;11.13;;
23119;SDS011;11729;50.836;4.330;2023-04-03T07:08:24;17.10;;;11.00;;
23119;SDS011;11729;50.836;4.330;2023-04-03T07:10:51;17.08;;;12.05;;
23119;SDS011;11729;50.836;4.330;2023-04-03T07:13:16;13.73;;;10.73;;
23119;SDS011;11729;50.836;4.330;2023-04-03T07:15:42;16.92;;;11.20;;
23119;SDS011;11729;50.836;4.330;2023-04-03T07:18:08;12.73;;;10.63;;
23119;SDS011;11729;50.836;4.330;2023-04-03T07:20:33;16.52;;;10.20;;
23119;SDS011;11729;50.836;4.330;2023-04-03T07:22:59;18.08;;;11.50;;
23119;SDS011;11729;50.836;4.330;2023-04-03T07:25:26;14.30;;;11.18;;
23119;SDS011;11729;50.836;4.330;2023-04-03T07:27:52;14.35;;;10.73;;
23119;SDS011;11729;50.836;4.330;2023-04-03T07:30:25;11.73;;;9.98;;
23119;SDS011;11729;50.836;4.330;2023-04-03T07:32:51;14.27;;;10.05;;
23119;SDS011;11729;50.836;4.330;2023-04-03T07:35:17;12.40;;;10.70;;
23119;SDS011;11729;50.836;4.330;2023-04-03T07:37:43;11.07;;;9.32;;
23119;SDS011;11729;50.836;4.330;2023-04-03T07:40:08;10.20;;;9.18;;
23119;SDS011;11729;50.836;4.330;2023-04-03T07:42:36;10.48;;;9.48;;
23119;SDS011;11729;50.836;4.330;2023-04-03T07:45:03;11.93;;;9.90;;
23119;SDS011;11729;50.836;4.330;2023-04-03T07:47:29;11.70;;;10.00;;
23119;SDS011;11729;50.836;4.330;2023-04-03T07:49:57;10.48;;;9.40;;
23119;SDS011;11729;50.836;4.330;2023-04-03T07:52:23;11.60;;;9.75;;
23119;SDS011;11729;50.836;4.330;2023-04-03T07:54:48;17.13;;;10.00;;
23119;SDS011;11729;50.836;4.330;2023-04-03T07:57:14;15.38;;;10.95;;
23119;SDS011;11729;50.836;4.330;2023-04-03T07:59:41;19.20;;;11.10;;
23119;SDS011;11729;50.836;4.330;2023-04-03T08:02:10;12.20;;;10.17;;
23119;SDS011;11729;50.836;4.330;2023-04-03T08:04:36;12.68;;;9.75;;
23119;SDS011;11729;50.836;4.330;2023-04-03T08:07:02;12.63;;;9.73;;
23119;SDS011;11729;50.836;4.330;2023-04-03T08:09:27;11.80;;;9.63;;
23119;SDS011;11729;50.836;4.330;2023-04-03T08:11:53;13.70;;;9.70;;
23119;SDS011;11729;50.836;4.330;2023-04-03T08:14:19;14.32;;;9.63;;
23119;SDS011;11729;50.836;4.330;2023-04-03T08:16:46;14.13;;;8.93;;
23119;SDS011;11729;50.836;4.330;2023-04-03T08:19:12;11.33;;;9.30;;
23119;SDS011;11729;50.836;4.330;2023-04-03T08:21:40;11.13;;;9.63;;
23119;SDS011;11729;50.836;4.330;2023-04-03T08:24:06;10.50;;;9.02;;
23119;SDS011;11729;50.836;4.330;2023-04-03T08:26:33;10.40;;;9.38;;
23119;SDS011;11729;50.836;4.330;2023-04-03T08:28:59;14.82;;;9.35;;
23119;SDS011;11729;50.836;4.330;2023-04-03T08:31:24;13.32;;;9.98;;
23119;SDS011;11729;50.836;4.330;2023-04-03T08:33:50;16.40;;;8.68;;
23119;SDS011;11729;50.836;4.330;2023-04-03T08:36:18;12.13;;;9.65;;
23119;SDS011;11729;50.836;4.330;2023-04-03T08:38:45;10.18;;;9.10;;
23119;SDS011;11729;50.836;4.330;2023-04-03T08:41:16;15.10;;;9.38;;
23119;SDS011;11729;50.836;4.330;2023-04-03T08:44:07;11.48;;;9.10;;
23119;SDS011;11729;50.836;4.330;2023-04-03T08:47:02;16.37;;;9.83;;
23119;SDS011;11729;50.836;4.330;2023-04-03T08:49:59;11.98;;;9.65;;
23119;SDS011;11729;50.836;4.330;2023-04-03T08:55:30;13.35;;;9.07;;
23119;SDS011;11729;50.836;4.330;2023-04-03T08:58:26;14.55;;;10.13;;
23119;SDS011;11729;50.836;4.330;2023-04-03T09:01:03;13.45;;;9.45;;
23119;SDS011;11729;50.836;4.330;2023-04-03T09:03:41;11.90;;;8.93;;
23119;SDS011;11729;50.836;4.330;2023-04-03T09:06:11;13.73;;;8.68;;
23119;SDS011;11729;50.836;4.330;2023-04-03T09:08:40;11.57;;;8.23;;
23119;SDS011;11729;50.836;4.330;2023-04-03T09:11:32;10.85;;;8.13;;
23119;SDS011;11729;50.836;4.330;2023-04-03T09:17:07;9.73;;;8.20;;
23119;SDS011;11729;50.836;4.330;2023-04-03T09:22:50;9.23;;;8.30;;
23119;SDS011;11729;50.836;4.330;2023-04-03T09:27:52;12.15;;;7.97;;
23119;SDS011;11729;50.836;4.330;2023-04-03T09:30:20;10.23;;;7.93;;
23119;SDS011;11729;50.836;4.330;2023-04-03T09:32:49;91.05;;;16.15;;
23119;SDS011;11729;50.836;4.330;2023-04-03T09:37:44;8.48;;;7.10;;
23119;SDS011;11729;50.836;4.330;2023-04-03T09:42:52;9.20;;;7.13;;
23119;SDS011;11729;50.836;4.330;2023-04-03T09:45:40;7.70;;;6.60;;
23119;SDS011;11729;50.836;4.330;2023-04-03T09:48:08;12.02;;;6.55;;
23119;SDS011;11729;50.836;4.330;2023-04-03T09:51:01;8.55;;;6.35;;
23119;SDS011;11729;50.836;4.330;2023-04-03T09:58:45;9.95;;;6.68;;
23119;SDS011;11729;50.836;4.330;2023-04-03T10:01:30;7.43;;;6.60;;
23119;SDS011;11729;50.836;4.330;2023-04-03T10:06:44;7.50;;;6.40;;
23119;SDS011;11729;50.836;4.330;2023-04-03T10:14:31;9.10;;;6.22;;
23119;SDS011;11729;50.836;4.330;2023-04-03T10:17:03;7.70;;;6.10;;
23119;SDS011;11729;50.836;4.330;2023-04-03T10:25:12;8.05;;;6.20;;
23119;SDS011;11729;50.836;4.330;2023-04-03T10:38:43;6.55;;;5.60;;
23119;SDS011;11729;50.836;4.330;2023-04-03T10:46:52;7.22;;;5.93;;
23119;SDS011;11729;50.836;4.330;2023-04-03T10:49:34;7.53;;;6.07;;
23119;SDS011;11729;50.836;4.330;2023-04-03T10:57:56;6.30;;;5.78;;
23119;SDS011;11729;50.836;4.330;2023-04-03T11:00:33;18.83;;;6.32;;
23119;SDS011;11729;50.836;4.330;2023-04-03T11:03:16;7.65;;;6.25;;
23119;SDS011;11729;50.836;4.330;2023-04-03T11:06:05;6.32;;;5.38;;
23119;SDS011;11729;50.836;4.330;2023-04-03T11:08:53;8.00;;;5.78;;
23119;SDS011;11729;50.836;4.330;2023-04-03T11:11:34;5.85;;;5.35;;
23119;SDS011;11729;50.836;4.330;2023-04-03T11:14:43;7.53;;;5.68;;
23119;SDS011;11729;50.836;4.330;2023-04-03T11:25:23;5.68;;;5.20;;
23119;SDS011;11729;50.836;4.330;2023-04-03T11:32:51;7.55;;;5.40;;
23119;SDS011;11729;50.836;4.330;2023-04-03T11:35:41;10.52;;;5.88;;
23119;SDS011;11729;50.836;4.330;2023-04-03T11:38:26;9.50;;;6.13;;
23119;SDS011;11729;50.836;4.330;2023-04-03T11:40:56;7.50;;;5.50;;
23119;SDS011;11729;50.836;4.330;2023-04-03T11:43:29;7.32;;;5.70;;
23119;SDS011;11729;50.836;4.330;2023-04-03T11:46:00;8.43;;;6.03;;
23119;SDS011;11729;50.836;4.330;2023-04-03T11:48:49;6.40;;;5.75;;
23119;SDS011;11729;50.836;4.330;2023-04-03T11:53:41;9.88;;;6.00;;
23119;SDS011;11729;50.836;4.330;2023-04-03T12:01:51;6.93;;;5.75;;
23119;SDS011;11729;50.836;4.330;2023-04-03T12:04:19;7.40;;;5.70;;
23119;SDS011;11729;50.836;4.330;2023-04-03T12:09:24;7.75;;;5.40;;
23119;SDS011;11729;50.836;4.330;2023-04-03T12:11:51;5.63;;;5.13;;
23119;SDS011;11729;50.836;4.330;2023-04-03T12:14:17;7.95;;;5.57;;
23119;SDS011;11729;50.836;4.330;2023-04-03T12:16:44;7.78;;;5.75;;
23119;SDS011;11729;50.836;4.330;2023-04-03T12:26:44;8.30;;;5.30;;
23119;SDS011;11729;50.836;4.330;2023-04-03T12:48:37;5.50;;;5.00;;
23119;SDS011;11729;50.836;4.330;2023-04-03T12:51:13;6.32;;;5.72;;
23119;SDS011;11729;50.836;4.330;2023-04-03T12:53:44;6.40;;;5.72;;
23119;SDS011;11729;50.836;4.330;2023-04-03T12:58:50;6.88;;;6.22;;
23119;SDS011;11729;50.836;4.330;2023-04-03T13:01:18;6.88;;;5.78;;
23119;SDS011;11729;50.836;4.330;2023-04-03T13:03:49;7.63;;;5.95;;
23119;SDS011;11729;50.836;4.330;2023-04-03T13:06:28;6.38;;;5.78;;
23119;SDS011;11729;50.836;4.330;2023-04-03T13:09:00;9.38;;;5.88;;
23119;SDS011;11729;50.836;4.330;2023-04-03T13:11:36;7.05;;;6.30;;
23119;SDS011;11729;50.836;4.330;2023-04-03T13:14:14;6.25;;;5.80;;
23119;SDS011;11729;50.836;4.330;2023-04-03T13:16:41;10.57;;;5.55;;
23119;SDS011;11729;50.836;4.330;2023-04-03T13:19:17;7.82;;;6.55;;
23119;SDS011;11729;50.836;4.330;2023-04-03T13:21:43;6.20;;;5.70;;
23119;SDS011;11729;50.836;4.330;2023-04-03T13:24:10;5.90;;;5.37;;
23119;SDS011;11729;50.836;4.330;2023-04-03T13:26:36;5.78;;;5.03;;
23119;SDS011;11729;50.836;4.330;2023-04-03T13:29:04;5.90;;;5.30;;
23119;SDS011;11729;50.836;4.330;2023-04-03T13:31:34;7.03;;;5.78;;
23119;SDS011;11729;50.836;4.330;2023-04-03T13:34:04;8.80;;;6.05;;
23119;SDS011;11729;50.836;4.330;2023-04-03T13:36:37;8.50;;;5.70;;
23119;SDS011;11729;50.836;4.330;2023-04-03T13:41:40;24.77;;;6.50;;
23119;SDS011;11729;50.836;4.330;2023-04-03T13:46:56;17.10;;;6.65;;
23119;SDS011;11729;50.836;4.330;2023-04-03T13:49:31;9.65;;;6.03;;
23119;SDS011;11729;50.836;4.330;2023-04-03T13:52:01;7.70;;;6.18;;
23119;SDS011;11729;50.836;4.330;2023-04-03T13:54:45;6.60;;;6.00;;
23119;SDS011;11729;50.836;4.330;2023-04-03T13:57:15;6.47;;;5.90;;
23119;SDS011;11729;50.836;4.330;2023-04-03T13:59:41;6.32;;;5.80;;
23119;SDS011;11729;50.836;4.330;2023-04-03T14:09:27;5.85;;;5.32;;
23119;SDS011;11729;50.836;4.330;2023-04-03T14:11:57;9.70;;;5.53;;
23119;SDS011;11729;50.836;4.330;2023-04-03T14:14:30;6.68;;;5.38;;
23119;SDS011;11729;50.836;4.330;2023-04-03T14:16:59;6.63;;;5.80;;
23119;SDS011;11729;50.836;4.330;2023-04-03T14:19:31;6.63;;;5.80;;
23119;SDS011;11729;50.836;4.330;2023-04-03T14:21:59;9.18;;;5.35;;
23119;SDS011;11729;50.836;4.330;2023-04-03T14:24:31;8.65;;;5.57;;
23119;SDS011;11729;50.836;4.330;2023-04-03T14:26:58;6.32;;;5.72;;
23119;SDS011;11729;50.836;4.330;2023-04-03T14:29:24;7.68;;;5.65;;
23119;SDS011;11729;50.836;4.330;2023-04-03T14:31:50;6.85;;;5.55;;
23119;SDS011;11729;50.836;4.330;2023-04-03T14:34:17;5.85;;;5.35;;
23119;SDS011;11729;50.836;4.330;2023-04-03T14:36:45;7.97;;;5.65;;
23119;SDS011;11729;50.836;4.330;2023-04-03T14:39:15;6.50;;;5.90;;
23119;SDS011;11729;50.836;4.330;2023-04-03T14:41:44;6.00;;;5.50;;
23119;SDS011;11729;50.836;4.330;2023-04-03T14:44:10;6.25;;;5.60;;
23119;SDS011;11729;50.836;4.330;2023-04-03T14:46:37;6.20;;;5.60;;
23119;SDS011;11729;50.836;4.330;2023-04-03T14:49:12;6.30;;;5.78;;
23119;SDS011;11729;50.836;4.330;2023-04-03T14:51:40;8.02;;;6.35;;
23119;SDS011;11729;50.836;4.330;2023-04-03T14:54:17;12.27;;;5.63;;
23119;SDS011;11729;50.836;4.330;2023-04-03T14:56:46;5.55;;;5.05;;
23119;SDS011;11729;50.836;4.330;2023-04-03T14:59:12;8.23;;;5.80;;
23119;SDS011;11729;50.836;4.330;2023-04-03T15:01:39;6.07;;;5.40;;
23119;SDS011;11729;50.836;4.330;2023-04-03T15:04:13;6.55;;;5.47;;
23119;SDS011;11729;50.836;4.330;2023-04-03T15:06:40;10.77;;;5.93;;
23119;SDS011;11729;50.836;4.330;2023-04-03T15:09:10;6.18;;;5.60;;
23119;SDS011;11729;50.836;4.330;2023-04-03T15:11:40;9.88;;;5.50;;
23119;SDS011;11729;50.836;4.330;2023-04-03T15:14:07;7.05;;;5.45;;
23119;SDS011;11729;50.836;4.330;2023-04-03T15:19:00;5.68;;;5.18;;
23119;SDS011;11729;50.836;4.330;2023-04-03T15:21:26;7.22;;;5.40;;
23119;SDS011;11729;50.836;4.330;2023-04-03T15:23:52;6.00;;;5.35;;
23119;SDS011;11729;50.836;4.330;2023-04-03T15:26:19;8.27;;;5.45;;
23119;SDS011;11729;50.836;4.330;2023-04-03T15:28:45;6.10;;;5.57;;
23119;SDS011;11729;50.836;4.330;2023-04-03T15:31:11;5.88;;;5.43;;
23119;SDS011;11729;50.836;4.330;2023-04-03T15:33:38;6.05;;;5.05;;
23119;SDS011;11729;50.836;4.330;2023-04-03T15:36:04;5.80;;;5.30;;
23119;SDS011;11729;50.836;4.330;2023-04-03T15:38:30;7.47;;;5.30;;
23119;SDS011;11729;50.836;4.330;2023-04-03T15:40:56;5.40;;;5.00;;
23119;SDS011;11729;50.836;4.330;2023-04-03T15:43:22;7.75;;;5.18;;
23119;SDS011;11729;50.836;4.330;2023-04-03T15:45:48;5.85;;;5.22;;
23119;SDS011;11729;50.836;4.330;2023-04-03T15:48:16;8.63;;;5.43;;
23119;SDS011;11729;50.836;4.330;2023-04-03T15:50:43;5.73;;;5.20;;
23119;SDS011;11729;50.836;4.330;2023-04-03T15:53:09;8.10;;;5.38;;
23119;SDS011;11729;50.836;4.330;2023-04-03T15:55:36;7.45;;;5.35;;
23119;SDS011;11729;50.836;4.330;2023-04-03T15:58:03;7.97;;;5.50;;
23119;SDS011;11729;50.836;4.330;2023-04-03T16:00:30;5.78;;;5.30;;
23119;SDS011;11729;50.836;4.330;2023-04-03T16:03:00;6.13;;;5.53;;
23119;SDS011;11729;50.836;4.330;2023-04-03T16:05:30;6.15;;;5.43;;
23119;SDS011;11729;50.836;4.330;2023-04-03T16:07:57;6.10;;;5.47;;
23119;SDS011;11729;50.836;4.330;2023-04-03T16:10:25;6.88;;;6.18;;
23119;SDS011;11729;50.836;4.330;2023-04-03T16:12:51;6.00;;;5.50;;
23119;SDS011;11729;50.836;4.330;2023-04-03T16:15:17;10.98;;;5.50;;
23119;SDS011;11729;50.836;4.330;2023-04-03T16:17:42;7.93;;;5.80;;
23119;SDS011;11729;50.836;4.330;2023-04-03T16:20:10;15.15;;;7.30;;
23119;SDS011;11729;50.836;4.330;2023-04-03T16:22:38;11.68;;;6.43;;
23119;SDS011;11729;50.836;4.330;2023-04-03T16:25:05;10.40;;;5.70;;
23119;SDS011;11729;50.836;4.330;2023-04-03T16:27:32;7.03;;;6.35;;
23119;SDS011;11729;50.836;4.330;2023-04-03T16:29:58;8.10;;;5.88;;
23119;SDS011;11729;50.836;4.330;2023-04-03T16:32:24;6.20;;;5.60;;
23119;SDS011;11729;50.836;4.330;2023-04-03T16:34:52;20.08;;;12.80;;
23119;SDS011;11729;50.836;4.330;2023-04-03T16:37:18;8.85;;;6.53;;
23119;SDS011;11729;50.836;4.330;2023-04-03T16:39:44;6.78;;;6.05;;
23119;SDS011;11729;50.836;4.330;2023-04-03T16:42:09;6.72;;;6.00;;
23119;SDS011;11729;50.836;4.330;2023-04-03T16:44:35;7.72;;;5.95;;
23119;SDS011;11729;50.836;4.330;2023-04-03T16:47:01;11.48;;;6.55;;
23119;SDS011;11729;50.836;4.330;2023-04-03T16:49:27;6.82;;;6.03;;
23119;SDS011;11729;50.836;4.330;2023-04-03T16:51:58;7.53;;;6.65;;
23119;SDS011;11729;50.836;4.330;2023-04-03T16:54:25;9.45;;;6.57;;
23119;SDS011;11729;50.836;4.330;2023-04-03T16:56:51;7.47;;;6.57;;